Tiempo atmosférico en la estación meteorológica de Manacor, Illes Balears (100 m.)



Fecha
DESCASC
Temp. máxima en grados centígrados (hora)
DESCASC
Temp. mínima en grados centígrados (hora)
DESCASC
Temp. media en grados centígrados
DESCASC
Racha de viento máxima en m/sg (hora)
DESCASC
Velocidad máxima media en intervalos de 10 minutos(hora)
DESCASC
Precipitaciones diarias en mm
DESCASC
Precipitaciones de 00:00 a 06:00 en mm
DESCASC
Precipitaciones de 06:00 a 12:00 en mm
DESCASC
Precipitaciones de 12:00 a 18:00 en mm
DESCASC
Precipitaciones de 18:00 a 24:00 en mm
DESCASC
04-03-2021 16.1 (15:40) 10.1 (23:59) 13.1 8.33 (09:40) 3.61 (09:10) 0 0 0 0 0
03-03-2021 16.5 (12:00) 10.9 (23:20) 13.7 10.56 (12:40) 5.28 (11:20) 0 0 0 0 0
02-03-2021 15.5 (12:50) 13.2 (22:30) 14.3 10.83 (00:40) 5.56 (00:30) 0 0 0 0 0
01-03-2021 16 (13:50) 12.3 (02:30) 14.2 11.39 (22:20) 5.83 (16:40) 0 0 0 0 0
28-02-2021 16.8 (13:40) 5.5 (00:00) 11.1 8.33 (23:50) 4.44 (13:50) 0 0 0 0 0
27-02-2021 17.4 (12:30) 4.3 (00:00) 10.8 7.22 (13:30) 3.89 (12:50) 0 0 0 0 0
26-02-2021 17.5 (13:50) 5.8 (00:00) 11.7 5.83 (12:50) 2.78 (12:20) 0 0 0 0 0
25-02-2021 18 (13:50) 5.2 (00:00) 11.6 5.83 (16:10) 3.06 (16:10) 0 0 0 0 0
24-02-2021 17.7 (14:40) 8.9 (00:00) 13.3 7.5 (13:30) 3.61 (11:30) 0 0 0 0 0
23-02-2021 17.5 (13:30) 9.2 (00:00) 13.3 6.67 (16:50) 3.89 (15:50) 0 0 0 0 0
22-02-2021 17.4 (00:00) 9.5 (00:00) 13.4 10.28 (05:20) 7.22 (06:00) 0.2 0 0 0.2 0
21-02-2021 17.6 (23:20) 12.5 (00:00) 15.1 10.56 (13:10) 5.28 (13:10) 0 0 0 0 0
20-02-2021 16.8 (12:40) 7.4 (00:00) 12.1 7.5 (14:00) 3.61 (14:10) 0 0 0 0 0
19-02-2021 18.3 (13:30) 5.5 (00:00) 11.9 6.11 (16:40) 3.33 (16:20) 0 0 0 0 0
18-02-2021 17.7 (15:30) 6.8 (00:00) 12.3 7.78 (12:50) 4.17 (12:40) 0 0 0 0 0
17-02-2021 17.8 (14:50) 5 (00:00) 11.4 4.72 (15:50) 2.5 (16:10) 0 0 0 0 0
16-02-2021 14.9 (13:20) 1.6 (00:00) 8.2 7.22 (15:10) 4.17 (14:20) 0 0 0 0 0
15-02-2021 12.4 (14:20) 2 (00:00) 7.2 6.11 (15:40) 2.5 (15:30) 0 0 0 0 0
14-02-2021 11.7 (00:00) 3.3 (00:00) 7.5 9.44 (15:00) 4.44 (10:50) 0 0 0 0 0
13-02-2021 16.6 (13:00) 10 (00:00) 13.3 5.28 (15:30) 2.78 (15:30) 0 0 0 0 0
12-02-2021 16.2 (17:20) 8.5 (00:00) 12.4 10.56 (11:40) 6.94 (16:50) 0 0 0 0 0
11-02-2021 19.3 (13:20) 5.1 (00:00) 12.2 8.61 (14:00) 5.83 (14:00) 0 0 0 0 0
10-02-2021 16.6 (12:00) 7.9 (00:00) 12.3 18.06 (12:10) 12.5 (12:20) 0 0 0 0 0
09-02-2021 17 (13:10) 8.9 (00:00) 12.9 16.67 (13:00) 10.83 (13:00) 0.4 0 0 0 0.4
08-02-2021 15.9 (11:30) 6.9 (00:00) 11.4 17.22 (14:40) 11.39 (15:30) 0.2 0 0 0.2 0
07-02-2021 14.8 (12:20) 6.4 (00:00) 10.6 9.72 (16:40) 5.28 (16:40) 0 0 0 0 0
06-02-2021 23.3 (02:10) 11.6 (00:00) 17.4 17.78 (03:10) 8.33 (05:00) 0 0 0 0 0
05-02-2021 23.8 (15:20) 8.8 (00:00) 16.3 10 (14:10) 6.39 (14:00) 0 0 0 0 0
04-02-2021 20 (14:50) 9.7 (00:00) 14.8 4.44 (15:00) 2.5 (16:40) 0 0 0 0 0

Gráficas

Temp. máximas Temp. mínimas Temp. medias Precipitaciones Rachas de viento máximas Velocidades máximas media en intervalos de 10 minutos

Datos horarios

Fecha y hora oficial Temperatura (ºC) Velocidad del viento (km/h) Dirección del viento Racha (km/h) Dirección de racha Precipitación (mm) Presión (hPa) Tendencia (hPa) Humedad (%)
2021-03-05 23:00:00 7.3 0 Calma 3 Sudoeste 0 -- -- 88
2021-03-05 22:00:00 8 0 Calma 2 Este 0 -- -- 87
2021-03-05 21:00:00 8.9 0 Calma 6 Nordeste 0 -- -- 82
2021-03-05 20:00:00 11.3 2 Este 6 Nordeste 0 -- -- 77
2021-03-05 19:00:00 12.9 4 Nordeste 6 Norte 0 -- -- 67
2021-03-05 18:00:00 15.2 2 Este 15 Este 0 -- -- 60
2021-03-05 17:00:00 16.7 6 Este 20 Nordeste 0 -- -- 54
2021-03-05 16:00:00 17.7 9 Este 21 Nordeste 0 -- -- 50
2021-03-05 15:00:00 17.8 8 Este 19 Este 0 -- -- 48
2021-03-05 14:00:00 16.3 3 Nordeste 10 Nordeste 0 -- -- 59
2021-03-05 13:00:00 16.4 5 Noroeste 12 Noroeste 0 -- -- 54
2021-03-05 12:00:00 16.1 7 Noroeste 14 Noroeste 0 -- -- 52
2021-03-05 11:00:00 15.7 6 Norte 14 Norte 0 -- -- 60
2021-03-05 10:00:00 13.5 3 Norte 6 Norte 0 -- -- 81
2021-03-05 09:00:00 10.8 0 Calma 3 Nordeste 0 -- -- 99
2021-03-05 08:00:00 6.3 0 Calma 5 Este 0 -- -- 98
2021-03-05 07:00:00 5.7 0 Calma 3 Sur 0 -- -- 97
2021-03-05 06:00:00 5.6 0 Calma 2 Sur 0 -- -- 96
2021-03-05 05:00:00 5.9 0 Calma 2 Sur 0 -- -- 96
2021-03-05 04:00:00 6.8 0 Calma 5 Sudoeste 0 -- -- 95
2021-03-05 03:00:00 7.5 2 Sudoeste 6 Sudoeste 0 -- -- 95
2021-03-05 02:00:00 7.3 0 Calma 3 Noroeste 0 -- -- 93
2021-03-05 01:00:00 8.6 0 Calma 0 Calma 0 -- -- 92
2021-03-05 00:00:00 10.1 0 Calma 7 Este 0 -- -- 90
2021-03-04 23:00:00 10.6 4 Este 8 Este 0 -- -- 90
2021-03-04 22:00:00 11.2 3 Este 9 Este 0 -- -- 89
2021-03-04 21:00:00 11.7 4 Nordeste 8 Nordeste 0 -- -- 89
2021-03-04 20:00:00 11.7 2 Nordeste 8 Nordeste 0 -- -- 87
2021-03-04 19:00:00 12.5 4 Nordeste 17 Este 0 -- -- 83
2021-03-04 18:00:00 14.1 8 Este 21 Nordeste 0 -- -- 76
2021-03-04 17:00:00 15.1 13 Nordeste 23 Este 0 -- -- 72
2021-03-04 16:00:00 15.7 9 Este 23 Nordeste 0 -- -- 68
2021-03-04 15:00:00 15.6 10 Este 23 Este 0 -- -- 69
2021-03-04 14:00:00 15.6 11 Este 24 Este 0 -- -- 68
2021-03-04 13:00:00 15 12 Nordeste 28 Este 0 -- -- 76
2021-03-04 12:00:00 14.7 11 Este 28 Este 0 -- -- 78
2021-03-04 11:00:00 14.3 10 Este 24 Nordeste 0 -- -- 81
2021-03-04 10:00:00 13.8 12 Este 30 Este 0 -- -- 83
2021-03-04 09:00:00 13.4 12 Nordeste 24 Nordeste 0 -- -- 85
2021-03-04 08:00:00 12.6 7 Nordeste 15 Este 0 -- -- 88
2021-03-04 07:00:00 12.2 6 Nordeste 18 Nordeste 0 -- -- 87
2021-03-04 06:00:00 12.1 6 Nordeste 12 Nordeste 0 -- -- 89
2021-03-04 05:00:00 12 5 Nordeste 12 Nordeste 0 -- -- 91
2021-03-04 04:00:00 11.6 5 Nordeste 12 Nordeste 0 -- -- 91
2021-03-04 03:00:00 11.2 4 Nordeste 12 Nordeste 0 -- -- 92
2021-03-04 02:00:00 10.9 2 Nordeste 9 Nordeste 0 -- -- 90
2021-03-04 01:00:00 11.5 4 Nordeste 17 Nordeste 0 -- -- 87
2021-03-04 00:00:00 11.5 6 Nordeste 13 Norte 0 -- -- 90
2021-03-03 23:00:00 11.3 6 Nordeste 14 Nordeste 0 -- -- 89
2021-03-03 22:00:00 11.5 6 Nordeste 15 Nordeste 0 -- -- 88
2021-03-03 21:00:00 11.2 5 Nordeste 13 Este 0 -- -- 88
2021-03-03 20:00:00 12.1 7 Nordeste 20 Nordeste 0 -- -- 86
2021-03-03 19:00:00 12.9 9 Nordeste 21 Este 0 -- -- 85
2021-03-03 18:00:00 14.2 12 Nordeste 26 Nordeste 0 -- -- 80
2021-03-03 17:00:00 15.6 15 Nordeste 29 Nordeste 0 -- -- 74
2021-03-03 16:00:00 15.7 11 Este 31 Nordeste 0 -- -- 74
2021-03-03 15:00:00 16.3 13 Este 32 Nordeste 0 -- -- 70
2021-03-03 14:00:00 15.7 13 Este 32 Nordeste 0 -- -- 72
2021-03-03 13:00:00 15.5 15 Este 38 Nordeste 0 -- -- 72
2021-03-03 12:00:00 16.5 14 Nordeste 35 Nordeste 0 -- -- 72
2021-03-03 11:00:00 15.2 17 Nordeste 33 Nordeste 0 -- -- 79
2021-03-03 10:00:00 14.7 14 Nordeste 29 Nordeste 0 -- -- 83
2021-03-03 09:00:00 13.4 12 Nordeste 22 Nordeste 0 -- -- 89
2021-03-03 08:00:00 11.7 3 Nordeste 10 Nordeste 0 -- -- 92
2021-03-03 07:00:00 11.9 6 Nordeste 14 Nordeste 0 -- -- 91
2021-03-03 06:00:00 11.6 6 Nordeste 14 Nordeste 0 -- -- 93
2021-03-03 05:00:00 11.7 7 Nordeste 18 Nordeste 0 -- -- 92
2021-03-03 04:00:00 11.9 10 Nordeste 19 Nordeste 0 -- -- 93
2021-03-03 03:00:00 11.9 7 Nordeste 18 Este 0 -- -- 91
2021-03-03 02:00:00 12.5 10 Nordeste 22 Nordeste 0 -- -- 91
2021-03-03 01:00:00 13.1 10 Nordeste 27 Nordeste 0 -- -- 92
2021-03-03 00:00:00 13.2 11 Nordeste 27 Nordeste 0 -- -- 92
2021-03-02 23:00:00 13.2 12 Nordeste 23 Nordeste 0 -- -- 91
2021-03-02 22:00:00 13.4 13 Nordeste 23 Nordeste 0 -- -- 91
2021-03-02 21:00:00 13.4 12 Nordeste 23 Nordeste 0 -- -- 90
2021-03-02 20:00:00 13.4 10 Nordeste 26 Nordeste 0 -- -- 90
2021-03-02 19:00:00 13.5 12 Nordeste 28 Nordeste 0 -- -- 89
2021-03-02 18:00:00 14 15 Nordeste 30 Este 0 -- -- 87
2021-03-02 17:00:00 14.6 10 Nordeste 28 Nordeste 0 -- -- 85
2021-03-02 16:00:00 14.9 17 Nordeste 34 Nordeste 0 -- -- 82
2021-03-02 15:00:00 14.9 11 Nordeste 33 Este 0 -- -- 83
2021-03-02 14:00:00 15.1 13 Nordeste 31 Nordeste 0 -- -- 83
2021-03-02 13:00:00 15.4 13 Nordeste 33 Nordeste 0 -- -- 82
2021-03-02 12:00:00 14.8 15 Nordeste 32 Este 0 -- -- 86
2021-03-02 11:00:00 14.4 12 Nordeste 23 Nordeste 0 -- -- 87
2021-03-02 10:00:00 14.1 8 Nordeste 24 Este 0 -- -- 89
2021-03-02 09:00:00 13.7 9 Nordeste 23 Nordeste 0 -- -- 91
2021-03-02 08:00:00 13.5 9 Nordeste 22 Nordeste 0 -- -- 92
2021-03-02 07:00:00 13.5 8 Nordeste 21 Nordeste 0 -- -- 92
2021-03-02 06:00:00 13.5 10 Nordeste 26 Nordeste 0 -- -- 91
2021-03-02 05:00:00 13.4 12 Nordeste 33 Nordeste 0 -- -- 90
2021-03-02 04:00:00 13.4 12 Nordeste 33 Nordeste 0 -- -- 89
2021-03-02 03:00:00 13.3 15 Nordeste 32 Nordeste 0 -- -- 89
2021-03-02 02:00:00 13.4 13 Este 32 Nordeste 0 -- -- 89
2021-03-02 01:00:00 13.4 17 Nordeste 39 Este 0 -- -- 89
2021-03-02 00:00:00 13.3 12 Nordeste 35 Nordeste 0 -- -- 89
2021-03-01 23:00:00 13.4 14 Este 41 Nordeste 0 -- -- 88
2021-03-01 22:00:00 13.3 13 Nordeste 36 Este 0 -- -- 87
2021-03-01 21:00:00 13.2 16 Nordeste 35 Nordeste 0 -- -- 86
2021-03-01 20:00:00 13.3 15 Nordeste 38 Nordeste 0 -- -- 83
2021-03-01 19:00:00 13.4 14 Nordeste 33 Nordeste 0 -- -- 83
2021-03-01 18:00:00 13.7 16 Nordeste 38 Este 0 -- -- 82
2021-03-01 17:00:00 14.2 17 Nordeste 36 Nordeste 0 -- -- 79
2021-03-01 16:00:00 15.3 14 Nordeste 33 Este 0 -- -- 76
2021-03-01 15:00:00 14.8 14 Este 35 Nordeste 0 -- -- 79
2021-03-01 14:00:00 15.3 16 Nordeste 37 Nordeste 0 -- -- 75
2021-03-01 13:00:00 15.2 16 Nordeste 35 Nordeste 0 -- -- 72
2021-03-01 12:00:00 15.3 15 Nordeste 36 Nordeste 0 -- -- 68
2021-03-01 11:00:00 14.2 14 Este 35 Este 0 -- -- 70
2021-03-01 10:00:00 14 15 Nordeste 31 Nordeste 0 -- -- 75
2021-03-01 09:00:00 13.2 15 Nordeste 29 Este 0 -- -- 82
2021-03-01 08:00:00 12.4 14 Nordeste 27 Este 0 -- -- 81
2021-03-01 07:00:00 12.7 8 Este 25 Este 0 -- -- 78
2021-03-01 06:00:00 12.6 10 Nordeste 22 Nordeste 0 -- -- 75
2021-03-01 05:00:00 12.5 9 Nordeste 18 Nordeste 0 -- -- 76
2021-03-01 04:00:00 12.5 8 Nordeste 21 Nordeste 0 -- -- 75
2021-03-01 03:00:00 12.4 8 Nordeste 21 Nordeste 0 -- -- 74
2021-03-01 02:00:00 12.5 10 Nordeste 22 Nordeste 0 -- -- 73
2021-03-01 01:00:00 12.6 9 Nordeste 24 Este 0 -- -- 72
2021-03-01 00:00:00 12.8 11 Este 30 Este 0 -- -- 71
2021-02-28 23:00:00 12.5 11 Nordeste 21 Este 0 -- -- 77
2021-02-28 22:00:00 12.5 8 Este 24 Este 0 -- -- 75
2021-02-28 21:00:00 12.5 9 Nordeste 20 Nordeste 0 -- -- 80
2021-02-28 20:00:00 12.5 10 Nordeste 25 Nordeste 0 -- -- 77
2021-02-28 19:00:00 12.3 6 Nordeste 19 Este 0 -- -- 75
2021-02-28 18:00:00 13.8 11 Nordeste 24 Nordeste 0 -- -- 71
2021-02-28 17:00:00 14.8 12 Este 26 Este 0 -- -- 65
2021-02-28 16:00:00 15.6 12 Este 26 Este 0 -- -- 64
2021-02-28 15:00:00 15.6 10 Nordeste 25 Nordeste 0 -- -- 66
2021-02-28 14:00:00 15.7 14 Nordeste 28 Nordeste 0 -- -- 69
2021-02-28 13:00:00 14.7 10 Este 24 Nordeste 0 -- -- 70
2021-02-28 12:00:00 15 13 Nordeste 22 Nordeste 0 -- -- 72
2021-02-28 11:00:00 14.5 9 Este 23 Nordeste 0 -- -- 70
2021-02-28 10:00:00 14.4 8 Nordeste 15 Nordeste 0 -- -- 82
2021-02-28 09:00:00 10.6 4 Nordeste 7 Nordeste 0 -- -- 98
2021-02-28 08:00:00 6.2 0 Calma 4 Sudeste 0 -- -- 97
2021-02-28 07:00:00 5.5 0 Calma 3 Este 0 -- -- 96
2021-02-28 06:00:00 5.7 0 Calma 4 Este 0 -- -- 96
2021-02-28 05:00:00 5.7 0 Calma 4 Este 0 -- -- 96
2021-02-28 04:00:00 5.8 0 Calma 2 Nordeste 0 -- -- 95
2021-02-28 03:00:00 5.8 0 Calma 4 Nordeste 0 -- -- 94
2021-02-28 02:00:00 5.6 0 Calma 5 Este 0 -- -- 92
2021-02-28 01:00:00 6.4 3 Este 6 Este 0 -- -- 92
2021-02-28 00:00:00 5.8 0 Calma 4 Este 0 -- -- 90
2021-02-27 23:00:00 6.5 0 Calma 4 Este 0 -- -- 89
2021-02-27 22:00:00 7.3 0 Calma 7 Este 0 -- -- 86
2021-02-27 21:00:00 8.5 3 Nordeste 6 Nordeste 0 -- -- 85
2021-02-27 20:00:00 9.7 0 Calma 5 Nordeste 0 -- -- 79
2021-02-27 19:00:00 11.8 3 Nordeste 13 Nordeste 0 -- -- 72
2021-02-27 18:00:00 14.6 9 Nordeste 18 Este 0 -- -- 63
2021-02-27 17:00:00 15.9 6 Este 23 Este 0 -- -- 61
2021-02-27 16:00:00 16.4 10 Nordeste 21 Nordeste 0 -- -- 62
2021-02-27 15:00:00 16.7 11 Nordeste 24 Nordeste 0 -- -- 65
2021-02-27 14:00:00 16.3 9 Nordeste 26 Nordeste 0 -- -- 65
2021-02-27 13:00:00 15.9 13 Nordeste 25 Nordeste 0 -- -- 68
2021-02-27 12:00:00 16.2 7 Nordeste 18 Nordeste 0 -- -- 71
2021-02-27 11:00:00 14.6 10 Nordeste 17 Nordeste 0 -- -- 78
2021-02-27 10:00:00 10.7 3 Oeste 5 Noroeste 0 -- -- 96
2021-02-27 09:00:00 7.1 0 Calma 2 Oeste 0 -- -- 100
2021-02-27 08:00:00 4.4 0 Calma 3 Sudoeste 0 -- -- 97
2021-02-27 07:00:00 4.9 0 Calma 2 Oeste 0 -- -- 97
2021-02-27 06:00:00 4.3 0 Calma 2 Sudoeste 0 -- -- 96
2021-02-27 05:00:00 5.3 0 Calma 4 Nordeste 0 -- -- 97
2021-02-27 04:00:00 5.6 0 Calma 2 Noroeste 0 -- -- 96
2021-02-27 03:00:00 5.8 2 Oeste 4 Oeste 0 -- -- 97
2021-02-27 02:00:00 5.4 0 Calma 2 Oeste 0 -- -- 95
2021-02-27 01:00:00 5.7 2 Sudoeste 5 Sur 0 -- -- 94
2021-02-27 00:00:00 5.9 2 Sudoeste 3 Sudoeste 0 -- -- 92
2021-02-26 23:00:00 6.9 0 Calma 3 Este 0 -- -- 92
2021-02-26 22:00:00 8 2 Este 4 Este 0 -- -- 90
2021-02-26 21:00:00 9.3 2 Este 6 Sudeste 0 -- -- 87
2021-02-26 20:00:00 10 3 Nordeste 6 Nordeste 0 -- -- 86
2021-02-26 19:00:00 11.9 3 Nordeste 8 Nordeste 0 -- -- 79
2021-02-26 18:00:00 14.8 2 Este 13 Este 0 -- -- 72
2021-02-26 17:00:00 15.7 7 Sudeste 15 Sudeste 0 -- -- 68
2021-02-26 16:00:00 16.8 6 Este 17 Sudeste 0 -- -- 65
2021-02-26 15:00:00 16.9 8 Este 18 Este 0 -- -- 64
2021-02-26 14:00:00 17.5 9 Este 20 Nordeste 0 -- -- 63
2021-02-26 13:00:00 17 8 Este 21 Nordeste 0 -- -- 64
2021-02-26 12:00:00 16.5 9 Nordeste 18 Nordeste 0 -- -- 66
2021-02-26 11:00:00 14.9 7 Nordeste 17 Nordeste 0 -- -- 74
2021-02-26 10:00:00 12.5 8 Nordeste 14 Nordeste 0 -- -- 85
2021-02-26 09:00:00 10.5 3 Nordeste 8 Nordeste 0 -- -- 96
2021-02-26 08:00:00 8.5 0 Calma 3 Nordeste 0 -- -- 96
2021-02-26 07:00:00 7.9 0 Calma 2 Nordeste 0 -- -- 96
2021-02-26 06:00:00 7.3 0 Calma 2 Este 0 -- -- 97
2021-02-26 05:00:00 6.1 0 Calma 2 Sudeste 0 -- -- 95
2021-02-26 04:00:00 6.4 2 Sur 3 Sur 0 -- -- 95
2021-02-26 03:00:00 7.6 0 Calma 2 Noroeste 0 -- -- 95
2021-02-26 02:00:00 6.7 0 Calma 0 Calma 0 -- -- 95
2021-02-26 01:00:00 5.9 0 Calma 2 Sudoeste 0 -- -- 93
2021-02-26 00:00:00 6.5 0 Calma 6 Este 0 -- -- 92
2021-02-25 23:00:00 6.5 2 Sudeste 4 Sudeste 0 -- -- 91
2021-02-25 22:00:00 7.4 0 Calma 2 Sudeste 0 -- -- 89
2021-02-25 21:00:00 8.4 0 Calma 6 Este 0 -- -- 88
2021-02-25 20:00:00 9.8 3 Este 8 Este 0 -- -- 83
2021-02-25 19:00:00 11.6 2 Este 18 Este 0 -- -- 78
2021-02-25 18:00:00 13.8 8 Este 19 Este 0 -- -- 71
2021-02-25 17:00:00 15.1 10 Este 21 Este 0 -- -- 66
2021-02-25 16:00:00 16.1 9 Este 20 Este 0 -- -- 64
2021-02-25 15:00:00 16.7 8 Este 19 Este 0 -- -- 61
2021-02-25 14:00:00 17.8 7 Este 18 Este 0 -- -- 62
2021-02-25 13:00:00 17.5 5 Nordeste 14 Nordeste 0 -- -- 61
2021-02-25 12:00:00 15.3 3 Este 13 Este 0 -- -- 67
2021-02-25 11:00:00 15.7 6 Este 12 Nordeste 0 -- -- 68
2021-02-25 10:00:00 13.3 5 Este 12 Este 0 -- -- 83
2021-02-25 09:00:00 9.9 0 Calma 0 Calma 0 -- -- 99
2021-02-25 08:00:00 5.8 0 Calma 3 Sur 0 -- -- 97
2021-02-25 07:00:00 5.2 0 Calma 3 Sudoeste 0 -- -- 96
2021-02-25 06:00:00 6 0 Calma 3 Sur 0 -- -- 97
2021-02-25 05:00:00 6 0 Calma 3 Sudoeste 0 -- -- 96
2021-02-25 04:00:00 6.6 0 Calma -- -- 0 -- -- 95
2021-02-25 03:00:00 7.2 0 Calma -- -- 0 -- -- 94
2021-02-25 02:00:00 7.9 0 Calma 0 Calma 0 -- -- 94
2021-02-25 01:00:00 8.5 0 Calma 2 Sur 0 -- -- 93
2021-02-25 00:00:00 9.2 0 Calma 2 Sudeste 0 -- -- 93
2021-02-24 23:00:00 10 0 Calma 4 Sudeste 0 -- -- 90
2021-02-24 22:00:00 11.4 0 Calma 4 Sudeste 0 -- -- 90
2021-02-24 21:00:00 11.3 0 Calma 2 Este 0 -- -- 89
2021-02-24 20:00:00 11.6 0 Calma 4 Este 0 -- -- 84
2021-02-24 19:00:00 13 0 Calma 9 Este 0 -- -- 78
2021-02-24 18:00:00 14.7 5 Este 17 Sudeste 0 -- -- 73
2021-02-24 17:00:00 15.4 6 Este 19 Este 0 -- -- 71
2021-02-24 16:00:00 15.8 9 Este 20 Este 0 -- -- 70
2021-02-24 15:00:00 16.7 10 Sudeste 22 Este 0 -- -- 65
2021-02-24 14:00:00 16.8 11 Este 27 Nordeste 0 -- -- 64
2021-02-24 13:00:00 16.8 11 Este 26 Sudeste 0 -- -- 64
2021-02-24 12:00:00 17.1 9 Este 26 Este 0 -- -- 67
2021-02-24 11:00:00 16.1 10 Este 24 Este 0 -- -- 65
2021-02-24 10:00:00 14.9 8 Este 17 Este 0 -- -- 83
2021-02-24 09:00:00 11.7 0 Calma 4 Este 0 -- -- 97
2021-02-24 08:00:00 10 0 Calma 3 Nordeste 0 -- -- 97
2021-02-24 07:00:00 10.1 0 Calma 4 Oeste 0 -- -- 96
2021-02-24 06:00:00 10.5 2 Sudoeste 4 Norte 0 -- -- 96
2021-02-24 05:00:00 11.4 0 Calma 4 Este 0 -- -- 96
2021-02-24 04:00:00 11.4 2 Norte 6 Nordeste 0 -- -- 96
2021-02-24 03:00:00 11.4 0 Calma 8 Nordeste 0 -- -- 95
2021-02-24 02:00:00 11.9 0 Calma 8 Este 0 -- -- 94
2021-02-24 01:00:00 12.5 2 Este 12 Este 0 -- -- 92
2021-02-24 00:00:00 13.7 5 Nordeste 11 Nordeste 0 -- -- 92
2021-02-23 23:00:00 13.9 5 Nordeste 16 Nordeste 0 -- -- 92
2021-02-23 22:00:00 14.1 8 Nordeste 19 Este 0 -- -- 91
2021-02-23 21:00:00 14.2 9 Nordeste 17 Nordeste 0 -- -- 89
2021-02-23 20:00:00 14.4 8 Nordeste 16 Nordeste 0 -- -- 87
2021-02-23 19:00:00 14.6 8 Nordeste 20 Este 0 -- -- 85
2021-02-23 18:00:00 15.1 9 Nordeste 21 Nordeste 0 -- -- 82
2021-02-23 17:00:00 16 12 Nordeste 24 Nordeste 0 -- -- 81
2021-02-23 16:00:00 16.7 14 Nordeste 22 Nordeste 0 -- -- 78
2021-02-23 15:00:00 16.5 10 Nordeste 23 Nordeste 0 -- -- 82
2021-02-23 14:00:00 17.3 9 Este 22 Nordeste 0 -- -- 78
2021-02-23 13:00:00 17.3 9 Nordeste 19 Nordeste 0 -- -- 80
2021-02-23 12:00:00 16.2 7 Nordeste 14 Este 0 -- -- 84
2021-02-23 11:00:00 14.1 5 Norte 11 Nordeste 0 -- -- 91
2021-02-23 10:00:00 12.6 0 Calma 5 Sudoeste 0 -- -- 95
2021-02-23 09:00:00 11.2 3 Sudoeste 6 Sudoeste 0 -- -- 96
2021-02-23 08:00:00 10.5 3 Sur 4 Sudoeste 0 -- -- 96
2021-02-23 07:00:00 10.5 2 Oeste 5 Sudoeste 0 -- -- 96
2021-02-23 06:00:00 10.4 0 Calma 4 Este 0 -- -- 96
2021-02-23 05:00:00 10.3 0 Calma 5 Este 0 -- -- 95
2021-02-23 04:00:00 10.4 0 Calma 2 Sur 0 -- -- 95
2021-02-23 03:00:00 10.2 0 Calma 0 Calma 0 -- -- 95
2021-02-23 02:00:00 10 0 Calma 2 Este 0 -- -- 95
2021-02-23 01:00:00 9.4 0 Calma 2 Nordeste 0 -- -- 94
2021-02-23 00:00:00 9.5 0 Calma 2 Sudoeste 0 -- -- 93
2021-02-22 23:00:00 9.7 2 Sur 4 Sur 0 -- -- 91
2021-02-22 22:00:00 11.1 3 Sur 6 Sur 0 -- -- 92
2021-02-22 21:00:00 11.9 3 Sudeste 8 Sudeste 0 -- -- 92
2021-02-22 20:00:00 12.5 4 Este 8 Sur 0 -- -- 89
2021-02-22 19:00:00 13.4 4 Sudeste 15 Sudeste 0 -- -- 84
2021-02-22 18:00:00 14.7 8 Sudeste 15 Sudeste 0 -- -- 76
2021-02-22 17:00:00 15.8 10 Sur 21 Sudeste 0 -- -- 72
2021-02-22 16:00:00 15.6 9 Sudeste 21 Sudeste 0 -- -- 71
2021-02-22 15:00:00 15.9 10 Sur 22 Sudeste 0 -- -- 73
2021-02-22 14:00:00 15 6 Sudeste 18 Sudeste 0.2 -- -- 81
2021-02-22 13:00:00 14.1 7 Sudeste 22 Sur 0 -- -- 79
2021-02-22 12:00:00 14.1 7 Sur 20 Sudeste 0 -- -- 81
2021-02-22 11:00:00 14.1 12 Sudoeste 25 Sudoeste 0 -- -- 77
2021-02-22 10:00:00 13.7 6 Sudoeste 22 Sudoeste 0 -- -- 84
2021-02-22 09:00:00 13.5 12 Sudoeste 21 Sudoeste 0 -- -- 84
2021-02-22 08:00:00 13.7 9 Sur 21 Sudoeste 0 -- -- 86
2021-02-22 07:00:00 13.7 17 Sudoeste 34 Sudoeste 0 -- -- 85
2021-02-22 06:00:00 13.8 26 Sudoeste 37 Sudoeste 0 -- -- 86
2021-02-22 05:00:00 14.1 22 Sudoeste 34 Sudoeste 0 -- -- 88
2021-02-22 04:00:00 14.4 21 Sudoeste 36 Sur 0 -- -- 87
2021-02-22 03:00:00 14.6 15 Sudoeste 33 Sudoeste 0 -- -- 87
2021-02-22 02:00:00 15.1 18 Sudoeste 30 Sudoeste 0 -- -- 87
2021-02-22 01:00:00 15.6 20 Sudoeste 37 Sudoeste 0 -- -- 82
2021-02-22 00:00:00 17.4 15 Sudoeste 30 Sudoeste 0 -- -- 62
2021-02-21 23:00:00 17.2 13 Sudeste 32 Sudeste 0 -- -- 68
2021-02-21 22:00:00 16.4 15 Sudeste 33 Este 0 -- -- 75
2021-02-21 21:00:00 15.9 15 Este 36 Este 0 -- -- 78
2021-02-21 20:00:00 15.4 13 Este 36 Sudeste 0 -- -- 80
2021-02-21 19:00:00 14.9 10 Este 26 Nordeste 0 -- -- 85
2021-02-21 18:00:00 15.2 9 Nordeste 26 Nordeste 0 -- -- 83
2021-02-21 17:00:00 15.7 11 Nordeste 25 Nordeste 0 -- -- 81
2021-02-21 16:00:00 16.8 10 Este 33 Este 0 -- -- 78
2021-02-21 15:00:00 16.2 15 Este 37 Este 0 -- -- 80
2021-02-21 14:00:00 16.5 15 Este 38 Este 0 -- -- 82
2021-02-21 13:00:00 16.5 17 Este 35 Este 0 -- -- 81
2021-02-21 12:00:00 15.9 18 Este 33 Este 0 -- -- 84
2021-02-21 11:00:00 15.7 13 Este 36 Este 0 -- -- 87
2021-02-21 10:00:00 14.6 14 Este 33 Este 0 -- -- 91
2021-02-21 09:00:00 13.8 12 Este 33 Este 0 -- -- 95
2021-02-21 08:00:00 12.9 6 Este 23 Este 0 -- -- 97
2021-02-21 07:00:00 12.6 10 Este 23 Este 0 -- -- 96
2021-02-21 06:00:00 12.8 8 Este 23 Este 0 -- -- 96
2021-02-21 05:00:00 12.8 10 Este 25 Este 0 -- -- 95
2021-02-21 04:00:00 12.8 9 Este 23 Este 0 -- -- 96
2021-02-21 03:00:00 12.9 8 Este 26 Este 0 -- -- 95
2021-02-21 02:00:00 12.8 13 Este 26 Este 0 -- -- 95
2021-02-21 01:00:00 12.6 10 Este 23 Este 0 -- -- 95
2021-02-21 00:00:00 12.6 7 Este 20 Este 0 -- -- 95
2021-02-20 23:00:00 12.3 4 Nordeste 11 Este 0 -- -- 95
2021-02-20 22:00:00 12.2 3 Nordeste 8 Este 0 -- -- 95
2021-02-20 21:00:00 12 4 Este 12 Este 0 -- -- 93
2021-02-20 20:00:00 12 4 Nordeste 18 Este 0 -- -- 91
2021-02-20 19:00:00 12.6 5 Este 17 Nordeste 0 -- -- 89
2021-02-20 18:00:00 14 7 Este 22 Este 0 -- -- 82
2021-02-20 17:00:00 15.1 10 Este 22 Este 0 -- -- 79
2021-02-20 16:00:00 16.1 10 Este 20 Sudeste 0 -- -- 73
2021-02-20 15:00:00 16.7 8 Este 23 Este 0 -- -- 71
2021-02-20 14:00:00 16.8 10 Este 27 Este 0 -- -- 70
2021-02-20 13:00:00 16.6 10 Este 24 Este 0 -- -- 69
2021-02-20 12:00:00 16.2 9 Este 19 Este 0 -- -- 72
2021-02-20 11:00:00 14.8 11 Este 21 Sudeste 0 -- -- 80
2021-02-20 10:00:00 12.8 8 Este 17 Este 0 -- -- 91
2021-02-20 09:00:00 10.2 2 Este 5 Este 0 -- -- 99
2021-02-20 08:00:00 8 0 Calma 2 Nordeste 0 -- -- 98
2021-02-20 07:00:00 7.6 0 Calma 5 Sudeste 0 -- -- 97
2021-02-20 06:00:00 7.5 0 Calma 3 Este 0 -- -- 96
2021-02-20 05:00:00 8.6 0 Calma 4 Este 0 -- -- 96
2021-02-20 04:00:00 7.5 0 Calma -- -- 0 -- -- 96
2021-02-20 03:00:00 8.9 0 Calma 4 Sudoeste 0 -- -- 95
2021-02-20 02:00:00 9.7 0 Calma 7 Sudoeste 0 -- -- 96
2021-02-20 01:00:00 9.3 0 Calma 3 Este 0 -- -- 97
2021-02-20 00:00:00 7.7 0 Calma 3 Este 0 -- -- 97
2021-02-19 23:00:00 7.1 0 Calma 2 Nordeste 0 -- -- 94
2021-02-19 22:00:00 8 0 Calma 4 Este 0 -- -- 93
2021-02-19 21:00:00 8.8 0 Calma 2 Sudeste 0 -- -- 91
2021-02-19 20:00:00 10.3 0 Calma 7 Sudeste 0 -- -- 88
2021-02-19 19:00:00 12.1 4 Sudeste 10 Sudeste 0 -- -- 86
2021-02-19 18:00:00 14.3 6 Sudeste 18 Sudeste 0 -- -- 81
2021-02-19 17:00:00 15.6 10 Este 22 Sudeste 0 -- -- 78
2021-02-19 16:00:00 16.6 11 Este 22 Este 0 -- -- 75
2021-02-19 15:00:00 17.4 9 Este 21 Este 0 -- -- 72
2021-02-19 14:00:00 18.2 6 Este 15 Este 0 -- -- 70
2021-02-19 13:00:00 16.9 3 Nordeste 9 Noroeste 0 -- -- 74
2021-02-19 12:00:00 15.1 3 Noroeste 12 Sudoeste 0 -- -- 80
2021-02-19 11:00:00 13.1 6 Oeste 10 Noroeste 0 -- -- 88
2021-02-19 10:00:00 10.8 0 Calma 4 Oeste 0 -- -- 99
2021-02-19 09:00:00 8.1 2 Noroeste 5 Noroeste 0 -- -- 99
2021-02-19 08:00:00 7.1 0 Calma 5 Sudoeste 0 -- -- 98
2021-02-19 07:00:00 7.1 3 Sudoeste 5 Sudoeste 0 -- -- 98
2021-02-19 06:00:00 5.7 3 Sudoeste 6 Oeste 0 -- -- 96
2021-02-19 05:00:00 6.7 0 Calma 8 Oeste 0 -- -- 96
2021-02-19 04:00:00 7.4 0 Calma 6 Sur 0 -- -- 97
2021-02-19 03:00:00 6.2 2 Noroeste 5 Noroeste 0 -- -- 96
2021-02-19 02:00:00 6.9 0 Calma 6 Sur 0 -- -- 96
2021-02-19 01:00:00 6.3 0 Calma 3 Nordeste 0 -- -- 94
2021-02-19 00:00:00 7.3 0 Calma 5 Este 0 -- -- 96
2021-02-18 23:00:00 8.2 0 Calma 4 Sudeste 0 -- -- 93
2021-02-18 22:00:00 9.2 2 Norte 5 Sur 0 -- -- 92
2021-02-18 21:00:00 10.6 0 Calma 4 Nordeste 0 -- -- 92
2021-02-18 20:00:00 13 0 Calma 17 Este 0 -- -- 92
2021-02-18 19:00:00 13.5 6 Este 18 Este 0 -- -- 89
2021-02-18 18:00:00 14.9 9 Este 22 Este 0 -- -- 83
2021-02-18 17:00:00 16.5 9 Sudeste 19 Este 0 -- -- 76
2021-02-18 16:00:00 17.2 9 Este 21 Este 0 -- -- 73
2021-02-18 15:00:00 17.3 10 Sudeste 24 Este 0 -- -- 72
2021-02-18 14:00:00 17.4 9 Este 25 Este 0 -- -- 71
2021-02-18 13:00:00 16.3 14 Este 28 Sudeste 0 -- -- 75
2021-02-18 12:00:00 16.4 8 Este 20 Este 0 -- -- 74
2021-02-18 11:00:00 15.3 8 Este 19 Este 0 -- -- 76
2021-02-18 10:00:00 13.4 7 Este 16 Este 0 -- -- 87
2021-02-18 09:00:00 11 0 Calma 4 Este 0 -- -- 94
2021-02-18 08:00:00 10.9 0 Calma 6 Sur 0 -- -- 93
2021-02-18 07:00:00 11.1 0 Calma 8 Sudeste 0 -- -- 93
2021-02-18 06:00:00 11.1 2 Sudeste 6 Sudeste 0 -- -- 94
2021-02-18 05:00:00 11.2 0 Calma 6 Sudoeste 0 -- -- 94
2021-02-18 04:00:00 10.9 0 Calma 6 Sur 0 -- -- 96
2021-02-18 03:00:00 10.1 0 Calma 3 Sudoeste 0 -- -- 96
2021-02-18 02:00:00 9.2 0 Calma 2 Oeste 0 -- -- 97
2021-02-18 01:00:00 7.4 0 Calma 2 Sudoeste 0 -- -- 96
2021-02-18 00:00:00 6.9 0 Calma 4 Nordeste 0 -- -- 95
2021-02-17 23:00:00 6.9 0 Calma 3 Este 0 -- -- 93
2021-02-17 22:00:00 7.6 0 Calma 4 Este 0 -- -- 91
2021-02-17 21:00:00 9.4 4 Este 6 Este 0 -- -- 91
2021-02-17 20:00:00 11.1 2 Sur 9 Sudoeste 0 -- -- 86
2021-02-17 19:00:00 12.1 0 Calma 10 Sudoeste 0 -- -- 83
2021-02-17 18:00:00 14.2 4 Este 14 Este 0 -- -- 79
2021-02-17 17:00:00 15.5 6 Este 15 Este 0 -- -- 74
2021-02-17 16:00:00 16.6 9 Este 17 Este 0 -- -- 69
2021-02-17 15:00:00 17.8 5 Noroeste 14 Este 0 -- -- 63
2021-02-17 14:00:00 17.2 8 Este 15 Este 0 -- -- 66
2021-02-17 13:00:00 16.8 6 Noroeste 14 Oeste 0 -- -- 66
2021-02-17 12:00:00 15 7 Sudoeste 16 Sudoeste 0 -- -- 72
2021-02-17 11:00:00 13 4 Oeste 9 Sudoeste 0 -- -- 79
2021-02-17 10:00:00 11.1 0 Calma 4 Norte 0 -- -- 89
2021-02-17 09:00:00 7.3 0 Calma 4 Sur 0 -- -- 98
2021-02-17 08:00:00 5.1 0 Calma 5 Sudeste 0 -- -- 96
2021-02-17 07:00:00 6.2 3 Sudeste 6 Sudeste 0 -- -- 95
2021-02-17 06:00:00 5.4 0 Calma 4 Sudeste 0 -- -- 93
2021-02-17 05:00:00 6.9 0 Calma 4 Sudoeste 0 -- -- 92
2021-02-17 04:00:00 8.6 0 Calma 5 Sudoeste 0 -- -- 92
2021-02-17 03:00:00 8.5 0 Calma 4 Norte 0 -- -- 94
2021-02-17 02:00:00 7.7 2 Sudeste 6 Nordeste 0 -- -- 95
2021-02-17 01:00:00 6.5 2 Este 15 Sudoeste 0 -- -- 91
2021-02-17 00:00:00 7.2 7 Sudoeste 12 Sudoeste 0 -- -- 95
2021-02-16 23:00:00 7.5 0 Calma 11 Sudoeste 0 -- -- 86
2021-02-16 22:00:00 8.5 4 Sudoeste 10 Sur 0 -- -- 87
2021-02-16 21:00:00 8.4 0 Calma 8 Sur 0 -- -- 83
2021-02-16 20:00:00 9.5 3 Sur 14 Sur 0 -- -- 80
2021-02-16 19:00:00 10.6 7 Sur 19 Sudoeste 0 -- -- 76
2021-02-16 18:00:00 12.5 12 Sudoeste 24 Sur 0 -- -- 68
2021-02-16 17:00:00 13.7 12 Sudoeste 23 Sudoeste 0 -- -- 63
2021-02-16 16:00:00 14.4 13 Sudoeste 26 Sudoeste 0 -- -- 61
2021-02-16 15:00:00 14.8 14 Sudoeste 24 Sudoeste 0 -- -- 59
2021-02-16 14:00:00 14.4 10 Sudoeste 22 Sudoeste 0 -- -- 61
2021-02-16 13:00:00 14.4 10 Sur 23 Sudoeste 0 -- -- 62
2021-02-16 12:00:00 13.8 10 Sur 21 Sudoeste 0 -- -- 63
2021-02-16 11:00:00 11.6 8 Oeste 16 Oeste 0 -- -- 72
2021-02-16 10:00:00 8.8 2 Noroeste 4 Oeste 0 -- -- 80
2021-02-16 09:00:00 5 0 Calma 2 Nordeste 0 -- -- 97
2021-02-16 08:00:00 2 0 Calma 2 Sur 0 -- -- 95
2021-02-16 07:00:00 1.7 0 Calma 5 Oeste 0 -- -- 93
2021-02-16 06:00:00 2.5 3 Oeste 5 Oeste 0 -- -- 93
2021-02-16 05:00:00 2.5 0 Calma -- -- 0 -- -- 92
2021-02-16 04:00:00 2.8 0 Calma 0 Calma 0 -- -- 91
2021-02-16 03:00:00 3.4 0 Calma 2 Sudoeste 0 -- -- 89
2021-02-16 02:00:00 4 0 Calma 2 Sur 0 -- -- 87
2021-02-16 01:00:00 5.1 0 Calma 2 Sur 0 -- -- 84
2021-02-16 00:00:00 6.8 0 Calma 0 Calma 0 -- -- 81
2021-02-15 23:00:00 8 0 Calma 0 Calma 0 -- -- 77
2021-02-15 22:00:00 8.8 0 Calma 3 Sudeste 0 -- -- 74
2021-02-15 21:00:00 9.1 0 Calma 6 Sudeste 0 -- -- 71
2021-02-15 20:00:00 9.3 4 Sudeste 8 Sudeste 0 -- -- 69
2021-02-15 19:00:00 9.6 3 Este 9 Este 0 -- -- 68
2021-02-15 18:00:00 10 4 Sudeste 13 Sudeste 0 -- -- 66
2021-02-15 17:00:00 10.6 5 Sudeste 16 Este 0 -- -- 61
2021-02-15 16:00:00 11.2 7 Este 22 Este 0 -- -- 60
2021-02-15 15:00:00 11.7 8 Este 20 Sudeste 0 -- -- 59
2021-02-15 14:00:00 12 9 Este 21 Este 0 -- -- 59
2021-02-15 13:00:00 11.4 9 Este 19 Sudeste 0 -- -- 61
2021-02-15 12:00:00 11.3 5 Este 17 Este 0 -- -- 63
2021-02-15 11:00:00 10.3 7 Este 15 Este 0 -- -- 66
2021-02-15 10:00:00 8 0 Calma 3 Este 0 -- -- 82
2021-02-15 09:00:00 6 0 Calma 2 Noroeste 0 -- -- 91
2021-02-15 08:00:00 4.3 0 Calma 4 Nordeste 0 -- -- 92
2021-02-15 07:00:00 3.6 0 Calma 3 Sudoeste 0 -- -- 92
2021-02-15 06:00:00 2.3 0 Calma 4 Sur 0 -- -- 92
2021-02-15 05:00:00 2.2 0 Calma 4 Sur 0 -- -- 90
2021-02-15 04:00:00 2.9 3 Sur 4 Sur 0 -- -- 90
2021-02-15 03:00:00 2.4 0 Calma 2 Nordeste 0 -- -- 90
2021-02-15 02:00:00 2.5 0 Calma 2 Este 0 -- -- 89
2021-02-15 01:00:00 2.8 0 Calma 3 Sur 0 -- -- 87
2021-02-15 00:00:00 3.3 0 Calma 3 Norte 0 -- -- 84
2021-02-14 23:00:00 4.2 0 Calma 3 Nordeste 0 -- -- 82
2021-02-14 22:00:00 5.9 0 Calma 8 Nordeste 0 -- -- 76
2021-02-14 21:00:00 7.1 4 Nordeste 8 Norte 0 -- -- 76
2021-02-14 20:00:00 7.4 4 Nordeste 8 Nordeste 0 -- -- 74
2021-02-14 19:00:00 7.4 3 Nordeste 17 Norte 0 -- -- 72
2021-02-14 18:00:00 9.2 10 Nordeste 26 Nordeste 0 -- -- 65
2021-02-14 17:00:00 10 9 Este 28 Nordeste 0 -- -- 63
2021-02-14 16:00:00 10.7 11 Nordeste 27 Nordeste 0 -- -- 63
2021-02-14 15:00:00 11 15 Nordeste 34 Este 0 -- -- 64
2021-02-14 14:00:00 10.8 13 Nordeste 30 Nordeste 0 -- -- 68
2021-02-14 13:00:00 11.1 12 Este 32 Nordeste 0 -- -- 69
2021-02-14 12:00:00 11.3 13 Nordeste 28 Nordeste 0 -- -- 67
2021-02-14 11:00:00 11 14 Nordeste 27 Este 0 -- -- 72
2021-02-14 10:00:00 11.5 12 Nordeste 32 Nordeste 0 -- -- 72
2021-02-14 09:00:00 10.7 6 Este 21 Nordeste 0 -- -- 76
2021-02-14 08:00:00 10.3 8 Nordeste 16 Nordeste 0 -- -- 79
2021-02-14 07:00:00 10.5 6 Nordeste 12 Nordeste 0 -- -- 82
2021-02-14 06:00:00 10.8 4 Nordeste 12 Nordeste 0 -- -- 89
2021-02-14 05:00:00 10.9 0 Calma 6 Este 0 -- -- 90
2021-02-14 04:00:00 11 2 Este 8 Este 0 -- -- 89
2021-02-14 03:00:00 11.2 4 Este 8 Nordeste 0 -- -- 90
2021-02-14 02:00:00 11 2 Este 8 Este 0 -- -- 92
2021-02-14 01:00:00 11.3 5 Este 9 Este 0 -- -- 90
2021-02-14 00:00:00 11.7 4 Nordeste 10 Nordeste 0 -- -- 88
2021-02-13 23:00:00 11.8 0 Calma 5 Este 0 -- -- 85
2021-02-13 22:00:00 11.8 4 Sudeste 7 Sudeste 0 -- -- 84
2021-02-13 21:00:00 12 4 Este 7 Este 0 -- -- 83
2021-02-13 20:00:00 12 5 Sudeste 12 Sudeste 0 -- -- 82
2021-02-13 19:00:00 12 5 Sudeste 10 Este 0 -- -- 82
2021-02-13 18:00:00 12.3 5 Este 12 Este 0 -- -- 80
2021-02-13 17:00:00 13.7 6 Este 15 Este 0 -- -- 75
2021-02-13 16:00:00 13.5 8 Sudeste 19 Sudeste 0 -- -- 76
2021-02-13 15:00:00 15 6 Sudeste 12 Este 0 -- -- 70
2021-02-13 14:00:00 16.1 4 Noroeste 13 Nordeste 0 -- -- 63
2021-02-13 13:00:00 16.6 6 Nordeste 15 Nordeste 0 -- -- 64
2021-02-13 08:00:00 10.5 3 Sudoeste 5 Sudeste 0 -- -- 95
2021-02-13 07:00:00 10 0 Calma 10 Nordeste 0 -- -- 93
2021-02-13 06:00:00 10.9 6 Nordeste 9 Nordeste 0 -- -- 92
2021-02-13 05:00:00 10.5 2 Nordeste 5 Nordeste 0 -- -- 94
2021-02-13 04:00:00 10.3 0 Calma 5 Sudoeste 0 -- -- 93
2021-02-13 03:00:00 10.3 3 Sudoeste 10 Sudoeste 0 -- -- 92
2021-02-13 02:00:00 11 2 Sudoeste 14 Sudoeste 0 -- -- 93
2021-02-13 01:00:00 10.9 8 Oeste 15 Oeste 0 -- -- 94
2021-02-13 00:00:00 11.6 8 Oeste 19 Noroeste 0 -- -- 93
2021-02-12 23:00:00 12.8 8 Noroeste 18 Noroeste 0 -- -- 81
2021-02-12 22:00:00 12.9 8 Oeste 17 Oeste 0 -- -- 76
2021-02-12 21:00:00 12.4 6 Oeste 21 Sudoeste 0 -- -- 77
2021-02-12 20:00:00 12.5 9 Sudoeste 15 Sudoeste 0 -- -- 80
2021-02-12 19:00:00 14.4 5 Oeste 20 Oeste 0 -- -- 78
2021-02-12 18:00:00 15.5 15 Oeste 34 Sudoeste 0 -- -- 77
2021-02-12 17:00:00 15.6 24 Sudoeste 36 Sudoeste 0 -- -- 85
2021-02-12 16:00:00 15.5 19 Sudoeste 28 Sudoeste 0 -- -- 85
2021-02-12 15:00:00 14.9 21 Sudoeste 35 Sudoeste 0 -- -- 88
2021-02-12 14:00:00 15.2 22 Sudoeste 33 Sudoeste 0 -- -- 88
2021-02-12 13:00:00 15.1 22 Sudoeste 32 Sudoeste 0 -- -- 88
2021-02-12 12:00:00 14.7 22 Sudoeste 38 Sudoeste 0 -- -- 92
2021-02-12 11:00:00 14.3 18 Sudoeste 32 Sudoeste 0 -- -- 95
2021-02-12 10:00:00 13.6 10 Sudoeste 29 Sudoeste 0 -- -- 97
2021-02-12 09:00:00 13.4 18 Sudoeste 28 Sudoeste 0 -- -- 97
2021-02-12 08:00:00 13.1 13 Sudoeste 23 Sur 0 -- -- 97
2021-02-12 07:00:00 12.9 16 Sudoeste 27 Sudoeste 0 -- -- 97
2021-02-12 06:00:00 12.7 10 Sudoeste 21 Sudoeste 0 -- -- 97
2021-02-12 05:00:00 8.5 0 Calma 6 Nordeste 0 -- -- 93
2021-02-12 04:00:00 9 3 Norte 9 Sudoeste 0 -- -- 91
2021-02-12 03:00:00 10.2 0 Calma 13 Sudoeste 0 -- -- 87
2021-02-12 02:00:00 13.1 9 Sur 20 Sudoeste 0 -- -- 83
2021-02-12 01:00:00 13.1 11 Sudoeste 18 Sudoeste 0 -- -- 80
2021-02-12 00:00:00 12.6 9 Sudoeste 18 Sudoeste 0 -- -- 86
2021-02-11 23:00:00 12.4 8 Oeste 21 Sudoeste 0 -- -- 93
2021-02-11 22:00:00 12.5 16 Sudoeste 25 Sudoeste 0 -- -- 90
2021-02-11 21:00:00 12.8 14 Sudoeste 22 Sudoeste 0 -- -- 87
2021-02-11 20:00:00 13 14 Sudoeste 21 Sudoeste 0 -- -- 79
2021-02-11 19:00:00 13.6 15 Sudoeste 23 Sudoeste 0 -- -- 71
2021-02-11 18:00:00 15.7 17 Sudoeste 26 Sudoeste 0 -- -- 56
2021-02-11 17:00:00 18.1 16 Sudoeste 30 Sudoeste 0 -- -- 47
2021-02-11 16:00:00 18.9 17 Sudoeste 26 Sudoeste 0 -- -- 44
2021-02-11 15:00:00 19.2 15 Sudoeste 28 Oeste 0 -- -- 44
2021-02-11 14:00:00 19 21 Sudoeste 31 Sudoeste 0 -- -- 41
2021-02-11 13:00:00 18.9 18 Oeste 30 Sudoeste 0 -- -- 40
2021-02-11 12:00:00 17.1 14 Sudoeste 25 Sudoeste 0 -- -- 56
2021-02-11 11:00:00 15.3 13 Sudoeste 22 Sudoeste 0 -- -- 65
2021-02-11 10:00:00 13.8 13 Sudoeste 24 Sudoeste 0 -- -- 78
2021-02-11 09:00:00 11.8 9 Sudoeste 16 Sur 0 -- -- 84
2021-02-11 08:00:00 10.8 9 Sudoeste 15 Sudoeste 0 -- -- 82
2021-02-11 07:00:00 10.5 9 Sudoeste 25 Sudoeste 0 -- -- 84
2021-02-11 06:00:00 10.8 18 Sudoeste 28 Sudoeste 0 -- -- 83
2021-02-11 05:00:00 5.1 2 Oeste 8 Sudoeste 0 -- -- 86
2021-02-11 04:00:00 5.6 0 Calma 7 Oeste 0 -- -- 83
2021-02-11 03:00:00 7.3 2 Nordeste 16 Sur 0 -- -- 74
2021-02-11 02:00:00 7.8 9 Sudoeste 15 Sudoeste 0 -- -- 77
2021-02-11 01:00:00 6.4 2 Sudoeste 9 Sudoeste 0 -- -- 80
2021-02-11 00:00:00 8 2 Este 19 Sur 0 -- -- 71
2021-02-10 23:00:00 9.8 10 Sudoeste 16 Sur 0 -- -- 68
2021-02-10 22:00:00 8.2 3 Sur 12 Sudoeste 0 -- -- 72
2021-02-10 21:00:00 8 5 Sudoeste 11 Oeste 0 -- -- 73
2021-02-10 20:00:00 10.2 4 Oeste 15 Sudoeste 0 -- -- 65
2021-02-10 19:00:00 12 4 Noroeste 25 Oeste 0 -- -- 57
2021-02-10 18:00:00 13.9 15 Oeste 37 Oeste 0 -- -- 52
2021-02-10 17:00:00 15 20 Oeste 48 Oeste 0 -- -- 49
2021-02-10 16:00:00 15.7 24 Oeste 51 Oeste 0 -- -- 45
2021-02-10 15:00:00 15.7 23 Noroeste 45 Noroeste 0 -- -- 45
2021-02-10 14:00:00 15.7 31 Oeste 62 Oeste 0 -- -- 52
2021-02-10 13:00:00 16.4 35 Oeste 65 Sudoeste 0 -- -- 48
2021-02-10 12:00:00 16.6 42 Sudoeste 63 Sudoeste 0 -- -- 55
2021-02-10 11:00:00 15.3 33 Sudoeste 60 Sudoeste 0 -- -- 55
2021-02-10 10:00:00 15.1 35 Sudoeste 54 Sudoeste 0 -- -- 70
2021-02-10 09:00:00 13.8 26 Sudoeste 50 Oeste 0 -- -- 73
2021-02-10 08:00:00 14.4 27 Oeste 50 Oeste 0 -- -- 58
2021-02-10 07:00:00 14 28 Oeste 56 Sudoeste 0 -- -- 60
2021-02-10 06:00:00 13.9 33 Sudoeste 50 Oeste 0 -- -- 68
2021-02-10 05:00:00 12.9 23 Sudoeste 48 Sudoeste 0 -- -- 89
2021-02-10 04:00:00 13.1 27 Sudoeste 39 Sudoeste 0 -- -- 91
2021-02-10 03:00:00 13 18 Sudoeste 46 Sudoeste 0 -- -- 93
2021-02-10 02:00:00 13.4 28 Sudoeste 42 Sudoeste 0 -- -- 92
2021-02-10 01:00:00 13.4 24 Sudoeste 44 Sudoeste 0 -- -- 92
2021-02-10 00:00:00 14 32 Sudoeste 59 Sudoeste 0 -- -- 90
2021-02-09 23:00:00 13.8 31 Sudoeste 57 Sudoeste 0.2 -- -- 91
2021-02-09 22:00:00 13.7 31 Sudoeste 50 Sudoeste 0.2 -- -- 91
2021-02-09 21:00:00 13.5 26 Sudoeste 42 Sudoeste 0 -- -- 91
2021-02-09 20:00:00 13.1 22 Sudoeste 45 Sudoeste 0 -- -- 83
2021-02-09 19:00:00 13 28 Sudoeste 45 Sudoeste 0 -- -- 86
2021-02-09 18:00:00 13.5 27 Sudoeste 48 Sudoeste 0 -- -- 86
2021-02-09 17:00:00 14.1 26 Sudoeste 45 Sudoeste 0 -- -- 73
2021-02-09 16:00:00 15.2 22 Sudoeste 39 Sudoeste 0 -- -- 66
2021-02-09 15:00:00 15.1 25 Sudoeste 39 Sudoeste 0 -- -- 64
2021-02-09 14:00:00 15.6 26 Sudoeste 56 Sudoeste 0 -- -- 62
2021-02-09 13:00:00 16.7 39 Oeste 60 Oeste 0 -- -- 52
2021-02-09 12:00:00 14.7 31 Sudoeste 46 Sudoeste 0 -- -- 60
2021-02-09 11:00:00 14 22 Sudoeste 36 Sudoeste 0 -- -- 66
2021-02-09 10:00:00 13.9 20 Sudoeste 30 Sudoeste 0 -- -- 69
2021-02-09 09:00:00 11 8 Sudoeste 10 Sudoeste 0 -- -- 79
2021-02-09 08:00:00 9.1 0 Calma 12 Oeste 0 -- -- 83
2021-02-09 07:00:00 10.5 9 Sudoeste 26 Oeste 0 -- -- 80
2021-02-09 06:00:00 10.9 18 Oeste 27 Sudoeste 0 -- -- 78
2021-02-09 05:00:00 10.8 14 Oeste 27 Oeste 0 -- -- 78
2021-02-09 04:00:00 10.6 13 Oeste 22 Sudoeste 0 -- -- 77
2021-02-09 03:00:00 11.7 13 Sudoeste 29 Sudoeste 0 -- -- 74
2021-02-09 02:00:00 11.7 13 Sudoeste 25 Sudoeste 0 -- -- 76
2021-02-09 01:00:00 11.5 9 Oeste 22 Sudoeste 0 -- -- 76
2021-02-09 00:00:00 11.7 14 Sudoeste 27 Sudoeste 0 -- -- 74
2021-02-08 23:00:00 11.9 17 Sudoeste 37 Oeste 0 -- -- 73
2021-02-08 22:00:00 12.4 24 Sudoeste 41 Sudoeste 0 -- -- 71
2021-02-08 21:00:00 13.1 25 Sudoeste 41 Sudoeste 0 -- -- 66
2021-02-08 20:00:00 13.5 27 Sudoeste 49 Oeste 0 -- -- 66
2021-02-08 19:00:00 13.5 26 Sudoeste 42 Oeste 0 -- -- 68
2021-02-08 18:00:00 14.3 22 Oeste 45 Sudoeste 0 -- -- 61
2021-02-08 17:00:00 14.6 29 Sudoeste 57 Oeste 0 -- -- 65
2021-02-08 16:00:00 14.6 34 Sudoeste 61 Sudoeste 0 -- -- 72
2021-02-08 15:00:00 14.1 39 Sudoeste 62 Sudoeste 0 -- -- 86
2021-02-08 14:00:00 13.1 28 Sudoeste 53 Sudoeste 0.2 -- -- 85
2021-02-08 13:00:00 14.3 33 Sudoeste 55 Sudoeste 0 -- -- 72
2021-02-08 12:00:00 15.5 25 Sudoeste 49 Sudoeste 0 -- -- 66
2021-02-08 11:00:00 14.8 35 Sudoeste 51 Sudoeste 0 -- -- 66
2021-02-08 10:00:00 13.1 31 Sudoeste 48 Sudoeste 0 -- -- 70
2021-02-08 09:00:00 12.1 29 Sudoeste 45 Sudoeste 0 -- -- 74
2021-02-08 08:00:00 10.9 19 Sudoeste 31 Sudoeste 0 -- -- 80
2021-02-08 07:00:00 11 18 Sudoeste 31 Sudoeste 0 -- -- 79
2021-02-08 06:00:00 11.3 21 Sudoeste 36 Sudoeste 0 -- -- 78
2021-02-08 05:00:00 11.3 21 Sudoeste 30 Sudoeste 0 -- -- 80
2021-02-08 04:00:00 11.1 20 Sudoeste 32 Sudoeste 0 -- -- 80
2021-02-08 03:00:00 6.9 3 Oeste 17 Sudoeste 0 -- -- 83
2021-02-08 02:00:00 10.2 13 Sudoeste 21 Sur 0 -- -- 82
2021-02-08 01:00:00 8.8 9 Sudoeste 18 Sur 0 -- -- 76
2021-02-08 00:00:00 8.8 10 Sudoeste 15 Sudoeste 0 -- -- 71
2021-02-07 23:00:00 7.2 6 Sudoeste 8 Sudoeste 0 -- -- 73
2021-02-07 22:00:00 6.5 4 Sudoeste 9 Sudoeste 0 -- -- 71
2021-02-07 21:00:00 7.6 0 Calma 10 Sudoeste 0 -- -- 69
2021-02-07 20:00:00 8.2 3 Sudoeste 5 Sudoeste 0 -- -- 70
2021-02-07 19:00:00 9.4 3 Oeste 9 Noroeste 0 -- -- 64
2021-02-07 18:00:00 12.6 4 Noroeste 23 Oeste 0 -- -- 50
2021-02-07 17:00:00 13.8 18 Oeste 35 Sudoeste 0 -- -- 49
2021-02-07 16:00:00 14.8 18 Oeste 26 Sudoeste 0 -- -- 53
2021-02-07 15:00:00 14.3 11 Oeste 21 Noroeste 0 -- -- 50
2021-02-07 14:00:00 14.2 11 Noroeste 23 Noroeste 0 -- -- 52
2021-02-07 13:00:00 13.9 9 Noroeste 25 Oeste 0 -- -- 64
2021-02-07 12:00:00 14.2 14 Oeste 25 Oeste 0 -- -- 60
2021-02-07 11:00:00 13.1 17 Oeste 27 Oeste 0 -- -- 70
2021-02-07 10:00:00 12.1 11 Oeste 17 Sudoeste 0 -- -- 78
2021-02-07 09:00:00 10.7 8 Oeste 20 Sudoeste 0 -- -- 87
2021-02-07 08:00:00 10.3 12 Sudoeste 20 Sudoeste 0 -- -- 93
2021-02-07 07:00:00 10.8 12 Sudoeste 27 Sudoeste 0 -- -- 94
2021-02-07 06:00:00 11.8 15 Sudoeste 23 Sudoeste 0 -- -- 95
2021-02-07 05:00:00 12.1 14 Sudoeste 22 Sudoeste 0 -- -- 96
2021-02-07 04:00:00 11.8 14 Sudoeste 22 Sudoeste 0 -- -- 95
2021-02-07 03:00:00 10.6 8 Oeste 22 Sudoeste 0 -- -- 93
2021-02-07 02:00:00 11.7 13 Sudoeste 27 Sudoeste 0 -- -- 92
2021-02-07 01:00:00 11.7 19 Sudoeste 27 Sudoeste 0 -- -- 93
2021-02-07 00:00:00 11.6 16 Sudoeste 36 Sudoeste 0 -- -- 94
2021-02-06 23:00:00 12.4 20 Sudoeste 29 Sudoeste 0 -- -- 93
2021-02-06 22:00:00 12.6 9 Sudoeste 21 Sudoeste 0 -- -- 92
2021-02-06 21:00:00 12.3 10 Sudoeste 16 Sudoeste 0 -- -- 89
2021-02-06 20:00:00 12.3 12 Oeste 17 Sudoeste 0 -- -- 89
2021-02-06 19:00:00 13.3 9 Sudoeste 23 Sudoeste 0 -- -- 83
2021-02-06 18:00:00 14.7 18 Sudoeste 31 Sudoeste 0 -- -- 80
2021-02-06 17:00:00 15.8 18 Sudoeste 33 Sudoeste 0 -- -- 75
2021-02-06 16:00:00 17.2 23 Sudoeste 34 Sudoeste 0 -- -- 63
2021-02-06 15:00:00 17.6 22 Sudoeste 35 Oeste 0 -- -- 64
2021-02-06 14:00:00 17.8 21 Sudoeste 33 Sudoeste 0 -- -- 70
2021-02-06 13:00:00 17.6 20 Sudoeste 36 Sudoeste 0 -- -- 73
2021-02-06 12:00:00 16.8 21 Sudoeste 34 Sudoeste 0 -- -- 78
2021-02-06 11:00:00 16 18 Sudoeste 33 Sudoeste 0 -- -- 84
2021-02-06 10:00:00 15.3 19 Sudoeste 33 Sudoeste 0 -- -- 88
2021-02-06 09:00:00 14.9 19 Sudoeste 35 Sudoeste 0 -- -- 88
2021-02-06 08:00:00 15.3 15 Sudoeste 28 Sudoeste 0 -- -- 83
2021-02-06 07:00:00 17.2 13 Sudoeste 27 Sudoeste 0 -- -- 63
2021-02-06 06:00:00 19.1 18 Sur 41 Sudoeste 0 -- -- 47
2021-02-06 05:00:00 21.9 30 Sur 58 Sudoeste 0 -- -- 32
2021-02-06 04:00:00 22.1 21 Sur 64 Sudeste 0 -- -- 30
2021-02-06 03:00:00 22.8 24 Sur 53 Sur 0 -- -- 28
2021-02-06 02:00:00 23.2 28 Sur 57 Sudeste 0 -- -- 28
2021-02-06 01:00:00 22.5 27 Sur 53 Sudeste 0 -- -- 34
2021-02-06 00:00:00 14.3 3 Nordeste 7 Nordeste 0 -- -- 81
2021-02-05 23:00:00 13.8 2 Nordeste 8 Nordeste 0 -- -- 81
2021-02-05 22:00:00 13.6 2 Este 9 Este 0 -- -- 78
2021-02-05 21:00:00 13.5 4 Este 15 Este 0 -- -- 77
2021-02-05 20:00:00 14.3 10 Este 19 Este 0 -- -- 73
2021-02-05 19:00:00 14.9 8 Este 19 Este 0 -- -- 73
2021-02-05 18:00:00 16.1 9 Este 16 Este 0 -- -- 70
2021-02-05 17:00:00 18 5 Este 18 Sudeste 0 -- -- 61
2021-02-05 16:00:00 22.7 6 Este 21 Sur 0 -- -- 47
2021-02-05 15:00:00 23.1 16 Sudoeste 36 Sur 0 -- -- 34
2021-02-05 14:00:00 22.8 23 Sudoeste 32 Sudoeste 0 -- -- 33
2021-02-05 13:00:00 22 22 Sudoeste 35 Sur 0 -- -- 39
2021-02-05 12:00:00 20.9 21 Sudoeste 31 Sudoeste 0 -- -- 46
2021-02-05 11:00:00 17.6 3 Nordeste 10 Sudoeste 0 -- -- 83
2021-02-05 10:00:00 13.8 4 Nordeste 9 Nordeste 0 -- -- 98
2021-02-05 09:00:00 11.9 5 Este 16 Este 0 -- -- 98
2021-02-05 08:00:00 11.9 5 Este 13 Este 0 -- -- 98
2021-02-05 07:00:00 11.1 4 Sudeste 10 Sudeste 0 -- -- 98
2021-02-05 06:00:00 10 4 Sudeste 7 Este 0 -- -- 98
2021-02-05 05:00:00 9.6 0 Calma 5 Nordeste 0 -- -- 97
2021-02-05 04:00:00 10.2 0 Calma 9 Sudeste 0 -- -- 97
2021-02-05 03:00:00 9.1 5 Este 10 Este 0 -- -- 98
2021-02-05 02:00:00 9.6 2 Sudeste 6 Este 0 -- -- 98
2021-02-05 01:00:00 9.9 0 Calma 6 Este 0 -- -- 96
2021-02-05 00:00:00 11 0 Calma 8 Este 0 -- -- 97
2021-02-04 23:00:00 11.6 3 Sudeste 6 Sudeste 0 -- -- 96
2021-02-04 22:00:00 11.8 3 Este 12 Sudeste 0 -- -- 97
2021-02-04 21:00:00 11.5 5 Este 12 Este 0 -- -- 96
2021-02-04 20:00:00 11.8 5 Este 10 Este 0 -- -- 92
2021-02-04 19:00:00 13.2 4 Este 10 Este 0 -- -- 88
2021-02-04 18:00:00 16 4 Este 11 Sudeste 0 -- -- 80
2021-02-04 17:00:00 17.6 6 Este 14 Este 0 -- -- 76
2021-02-04 16:00:00 18.1 8 Este 15 Este 0 -- -- 73
2021-02-04 15:00:00 19.6 8 Este 16 Sudeste 0 -- -- 66
2021-02-04 14:00:00 17.9 4 Sudoeste 14 Oeste 0 -- -- 69
2021-02-04 13:00:00 14.9 0 Calma 6 Sudoeste 0 -- -- 83
2021-02-04 12:00:00 12.8 5 Oeste 8 Oeste 0 -- -- 90
2021-02-04 11:00:00 11.9 4 Sur 9 Sudoeste 0 -- -- 96
2021-02-04 10:00:00 10.4 6 Sudoeste 13 Sudoeste 0 -- -- 97
2021-02-04 09:00:00 9.7 0 Calma 9 Sudeste 0 -- -- 97
2021-02-04 08:00:00 10.4 3 Sur 8 Sudeste 0 -- -- 96
2021-02-04 07:00:00 10.3 3 Sudoeste 10 Sudoeste 0 -- -- 97
2021-02-04 06:00:00 10.7 6 Sudoeste 12 Sudoeste 0 -- -- 97
2021-02-04 05:00:00 10.2 4 Sudoeste 6 Sudoeste 0 -- -- 97
2021-02-04 04:00:00 10.5 0 Calma 8 Sur 0 -- -- 95
2021-02-04 03:00:00 11.5 4 Oeste 9 Sudoeste 0 -- -- 96
2021-02-04 02:00:00 11.3 4 Sudoeste 12 Sur 0 -- -- 96
2021-02-04 01:00:00 10.7 0 Calma 13 Sudoeste 0 -- -- 91
2021-02-04 00:00:00 11.3 3 Sudoeste 10 Sudoeste 0 -- -- 95